sensor_id;sensor_type;location;lat;lon;timestamp;P1;durP1;ratioP1;P2;durP2;ratioP2
66421;SDS011;53228;51.380;0.098;2024-01-07T00:01:16;43.42;;;15.20;;
66421;SDS011;53228;51.380;0.098;2024-01-07T00:03:44;33.63;;;15.32;;
66421;SDS011;53228;51.380;0.098;2024-01-07T00:06:12;35.28;;;15.13;;
66421;SDS011;53228;51.380;0.098;2024-01-07T00:08:39;30.33;;;13.15;;
66421;SDS011;53228;51.380;0.098;2024-01-07T00:11:07;35.83;;;14.95;;
66421;SDS011;53228;51.380;0.098;2024-01-07T00:13:35;34.30;;;14.32;;
66421;SDS011;53228;51.380;0.098;2024-01-07T00:16:03;32.58;;;14.18;;
66421;SDS011;53228;51.380;0.098;2024-01-07T00:18:31;43.65;;;15.00;;
66421;SDS011;53228;51.380;0.098;2024-01-07T00:20:59;32.35;;;14.32;;
66421;SDS011;53228;51.380;0.098;2024-01-07T00:23:26;44.30;;;16.85;;
66421;SDS011;53228;51.380;0.098;2024-01-07T00:25:54;32.15;;;14.25;;
66421;SDS011;53228;51.380;0.098;2024-01-07T00:28:22;35.75;;;14.77;;
66421;SDS011;53228;51.380;0.098;2024-01-07T00:30:49;35.55;;;14.90;;
66421;SDS011;53228;51.380;0.098;2024-01-07T00:33:17;37.08;;;15.07;;
66421;SDS011;53228;51.380;0.098;2024-01-07T00:35:45;40.25;;;15.25;;
66421;SDS011;53228;51.380;0.098;2024-01-07T00:38:13;36.00;;;14.63;;
66421;SDS011;53228;51.380;0.098;2024-01-07T00:40:42;32.03;;;12.93;;
66421;SDS011;53228;51.380;0.098;2024-01-07T00:43:10;28.50;;;12.23;;
66421;SDS011;53228;51.380;0.098;2024-01-07T00:45:38;30.60;;;12.20;;
66421;SDS011;53228;51.380;0.098;2024-01-07T00:48:06;28.77;;;11.27;;
66421;SDS011;53228;51.380;0.098;2024-01-07T00:50:34;27.60;;;12.43;;
66421;SDS011;53228;51.380;0.098;2024-01-07T00:53:02;30.05;;;11.85;;
66421;SDS011;53228;51.380;0.098;2024-01-07T00:55:30;28.60;;;11.68;;
66421;SDS011;53228;51.380;0.098;2024-01-07T00:57:57;33.30;;;12.95;;
66421;SDS011;53228;51.380;0.098;2024-01-07T01:00:25;36.95;;;11.88;;
66421;SDS011;53228;51.380;0.098;2024-01-07T01:02:54;35.25;;;12.82;;
66421;SDS011;53228;51.380;0.098;2024-01-07T01:05:23;34.40;;;12.30;;
66421;SDS011;53228;51.380;0.098;2024-01-07T01:07:50;26.63;;;11.30;;
66421;SDS011;53228;51.380;0.098;2024-01-07T01:10:19;23.33;;;10.80;;
66421;SDS011;53228;51.380;0.098;2024-01-07T01:12:47;26.15;;;11.40;;
66421;SDS011;53228;51.380;0.098;2024-01-07T01:15:15;20.30;;;9.88;;
66421;SDS011;53228;51.380;0.098;2024-01-07T01:17:45;27.92;;;10.25;;
66421;SDS011;53228;51.380;0.098;2024-01-07T01:20:13;20.77;;;7.95;;
66421;SDS011;53228;51.380;0.098;2024-01-07T01:22:41;35.35;;;12.10;;
66421;SDS011;53228;51.380;0.098;2024-01-07T01:25:08;23.73;;;9.27;;
66421;SDS011;53228;51.380;0.098;2024-01-07T01:27:37;17.27;;;7.97;;
66421;SDS011;53228;51.380;0.098;2024-01-07T01:30:05;24.65;;;8.43;;
66421;SDS011;53228;51.380;0.098;2024-01-07T01:32:33;17.27;;;8.20;;
66421;SDS011;53228;51.380;0.098;2024-01-07T01:35:01;24.73;;;9.27;;
66421;SDS011;53228;51.380;0.098;2024-01-07T01:37:29;22.00;;;7.68;;
66421;SDS011;53228;51.380;0.098;2024-01-07T01:39:59;15.40;;;7.72;;
66421;SDS011;53228;51.380;0.098;2024-01-07T01:42:27;25.20;;;8.93;;
66421;SDS011;53228;51.380;0.098;2024-01-07T01:44:55;25.23;;;9.07;;
66421;SDS011;53228;51.380;0.098;2024-01-07T01:47:27;22.00;;;9.73;;
66421;SDS011;53228;51.380;0.098;2024-01-07T01:49:58;27.20;;;9.00;;
66421;SDS011;53228;51.380;0.098;2024-01-07T01:52:26;25.17;;;10.02;;
66421;SDS011;53228;51.380;0.098;2024-01-07T01:54:54;28.58;;;10.07;;
66421;SDS011;53228;51.380;0.098;2024-01-07T01:57:22;36.63;;;11.52;;
66421;SDS011;53228;51.380;0.098;2024-01-07T01:59:56;29.02;;;10.27;;
66421;SDS011;53228;51.380;0.098;2024-01-07T02:02:31;21.95;;;10.25;;
66421;SDS011;53228;51.380;0.098;2024-01-07T02:05:02;27.48;;;10.98;;
66421;SDS011;53228;51.380;0.098;2024-01-07T02:07:31;25.33;;;10.43;;
66421;SDS011;53228;51.380;0.098;2024-01-07T02:09:59;26.90;;;10.68;;
66421;SDS011;53228;51.380;0.098;2024-01-07T02:12:27;27.98;;;10.93;;
66421;SDS011;53228;51.380;0.098;2024-01-07T02:14:55;25.98;;;11.15;;
66421;SDS011;53228;51.380;0.098;2024-01-07T02:17:23;22.77;;;10.70;;
66421;SDS011;53228;51.380;0.098;2024-01-07T02:19:51;26.30;;;9.63;;
66421;SDS011;53228;51.380;0.098;2024-01-07T02:22:18;30.73;;;9.88;;
66421;SDS011;53228;51.380;0.098;2024-01-07T02:24:46;27.67;;;9.90;;
66421;SDS011;53228;51.380;0.098;2024-01-07T02:27:14;26.20;;;10.15;;
66421;SDS011;53228;51.380;0.098;2024-01-07T02:29:42;20.38;;;10.18;;
66421;SDS011;53228;51.380;0.098;2024-01-07T02:32:09;25.30;;;9.40;;
66421;SDS011;53228;51.380;0.098;2024-01-07T02:34:37;22.85;;;9.65;;
66421;SDS011;53228;51.380;0.098;2024-01-07T02:37:05;24.13;;;11.35;;
66421;SDS011;53228;51.380;0.098;2024-01-07T02:39:33;24.95;;;10.32;;
66421;SDS011;53228;51.380;0.098;2024-01-07T02:42:01;27.88;;;10.52;;
66421;SDS011;53228;51.380;0.098;2024-01-07T02:44:29;24.05;;;11.32;;
66421;SDS011;53228;51.380;0.098;2024-01-07T02:46:56;24.65;;;10.02;;
66421;SDS011;53228;51.380;0.098;2024-01-07T02:49:24;27.52;;;10.43;;
66421;SDS011;53228;51.380;0.098;2024-01-07T02:51:52;23.25;;;9.20;;
66421;SDS011;53228;51.380;0.098;2024-01-07T02:54:20;25.98;;;9.38;;
66421;SDS011;53228;51.380;0.098;2024-01-07T02:56:47;29.33;;;10.52;;
66421;SDS011;53228;51.380;0.098;2024-01-07T02:59:15;23.42;;;9.13;;
66421;SDS011;53228;51.380;0.098;2024-01-07T03:01:43;24.02;;;9.25;;
66421;SDS011;53228;51.380;0.098;2024-01-07T03:04:12;27.88;;;10.93;;
66421;SDS011;53228;51.380;0.098;2024-01-07T03:06:40;26.05;;;11.25;;
66421;SDS011;53228;51.380;0.098;2024-01-07T03:09:08;26.52;;;11.00;;
66421;SDS011;53228;51.380;0.098;2024-01-07T03:11:40;28.90;;;11.45;;
66421;SDS011;53228;51.380;0.098;2024-01-07T03:14:10;43.17;;;12.50;;
66421;SDS011;53228;51.380;0.098;2024-01-07T03:16:38;30.75;;;11.20;;
66421;SDS011;53228;51.380;0.098;2024-01-07T03:19:06;33.63;;;13.52;;
66421;SDS011;53228;51.380;0.098;2024-01-07T03:21:34;29.50;;;12.85;;
66421;SDS011;53228;51.380;0.098;2024-01-07T03:24:01;30.77;;;11.50;;
66421;SDS011;53228;51.380;0.098;2024-01-07T03:26:30;26.08;;;11.30;;
66421;SDS011;53228;51.380;0.098;2024-01-07T03:29:00;25.08;;;10.80;;
66421;SDS011;53228;51.380;0.098;2024-01-07T03:31:29;24.92;;;11.63;;
66421;SDS011;53228;51.380;0.098;2024-01-07T03:33:57;36.35;;;13.80;;
66421;SDS011;53228;51.380;0.098;2024-01-07T03:36:25;27.88;;;12.43;;
66421;SDS011;53228;51.380;0.098;2024-01-07T03:38:53;33.03;;;11.57;;
66421;SDS011;53228;51.380;0.098;2024-01-07T03:41:21;30.15;;;11.95;;
66421;SDS011;53228;51.380;0.098;2024-01-07T03:43:49;32.40;;;11.90;;
66421;SDS011;53228;51.380;0.098;2024-01-07T03:46:17;26.58;;;11.15;;
66421;SDS011;53228;51.380;0.098;2024-01-07T03:48:45;28.63;;;11.60;;
66421;SDS011;53228;51.380;0.098;2024-01-07T03:51:13;27.77;;;12.00;;
66421;SDS011;53228;51.380;0.098;2024-01-07T03:53:40;25.77;;;11.52;;
66421;SDS011;53228;51.380;0.098;2024-01-07T03:56:08;27.80;;;11.02;;
66421;SDS011;53228;51.380;0.098;2024-01-07T03:58:36;27.33;;;10.23;;
66421;SDS011;53228;51.380;0.098;2024-01-07T04:01:04;25.92;;;11.18;;
66421;SDS011;53228;51.380;0.098;2024-01-07T04:03:32;23.08;;;8.35;;
66421;SDS011;53228;51.380;0.098;2024-01-07T04:06:00;23.25;;;8.20;;
66421;SDS011;53228;51.380;0.098;2024-01-07T04:08:28;26.23;;;8.25;;
66421;SDS011;53228;51.380;0.098;2024-01-07T04:10:55;23.52;;;8.98;;
66421;SDS011;53228;51.380;0.098;2024-01-07T04:13:23;20.90;;;7.32;;
66421;SDS011;53228;51.380;0.098;2024-01-07T04:15:51;19.30;;;7.90;;
66421;SDS011;53228;51.380;0.098;2024-01-07T04:18:19;19.63;;;7.70;;
66421;SDS011;53228;51.380;0.098;2024-01-07T04:20:46;24.20;;;8.27;;
66421;SDS011;53228;51.380;0.098;2024-01-07T04:23:14;19.70;;;7.38;;
66421;SDS011;53228;51.380;0.098;2024-01-07T04:25:42;16.33;;;7.45;;
66421;SDS011;53228;51.380;0.098;2024-01-07T04:28:11;18.08;;;7.13;;
66421;SDS011;53228;51.380;0.098;2024-01-07T04:30:39;17.48;;;7.47;;
66421;SDS011;53228;51.380;0.098;2024-01-07T04:33:06;22.08;;;6.70;;
66421;SDS011;53228;51.380;0.098;2024-01-07T04:35:34;20.52;;;6.72;;
66421;SDS011;53228;51.380;0.098;2024-01-07T04:38:02;16.25;;;7.10;;
66421;SDS011;53228;51.380;0.098;2024-01-07T04:40:30;13.35;;;6.53;;
66421;SDS011;53228;51.380;0.098;2024-01-07T04:42:58;15.48;;;6.30;;
66421;SDS011;53228;51.380;0.098;2024-01-07T04:45:26;17.63;;;6.97;;
66421;SDS011;53228;51.380;0.098;2024-01-07T04:47:53;13.95;;;6.63;;
66421;SDS011;53228;51.380;0.098;2024-01-07T04:50:21;16.52;;;7.05;;
66421;SDS011;53228;51.380;0.098;2024-01-07T04:52:50;15.63;;;6.38;;
66421;SDS011;53228;51.380;0.098;2024-01-07T04:55:17;14.43;;;6.50;;
66421;SDS011;53228;51.380;0.098;2024-01-07T04:57:45;17.65;;;6.80;;
66421;SDS011;53228;51.380;0.098;2024-01-07T05:00:13;16.55;;;6.78;;
66421;SDS011;53228;51.380;0.098;2024-01-07T05:02:42;11.63;;;4.93;;
66421;SDS011;53228;51.380;0.098;2024-01-07T05:05:09;10.10;;;5.20;;
66421;SDS011;53228;51.380;0.098;2024-01-07T05:07:37;11.63;;;5.45;;
66421;SDS011;53228;51.380;0.098;2024-01-07T05:10:05;15.57;;;6.65;;
66421;SDS011;53228;51.380;0.098;2024-01-07T05:12:33;17.95;;;7.47;;
66421;SDS011;53228;51.380;0.098;2024-01-07T05:15:01;20.15;;;6.78;;
66421;SDS011;53228;51.380;0.098;2024-01-07T05:17:29;11.05;;;5.50;;
66421;SDS011;53228;51.380;0.098;2024-01-07T05:19:57;16.92;;;7.20;;
66421;SDS011;53228;51.380;0.098;2024-01-07T05:22:25;12.60;;;6.18;;
66421;SDS011;53228;51.380;0.098;2024-01-07T05:24:53;14.43;;;5.90;;
66421;SDS011;53228;51.380;0.098;2024-01-07T05:27:20;18.10;;;7.18;;
66421;SDS011;53228;51.380;0.098;2024-01-07T05:29:48;22.42;;;7.43;;
66421;SDS011;53228;51.380;0.098;2024-01-07T05:32:16;16.45;;;7.28;;
66421;SDS011;53228;51.380;0.098;2024-01-07T05:34:44;19.80;;;7.63;;
66421;SDS011;53228;51.380;0.098;2024-01-07T05:37:11;17.40;;;7.22;;
66421;SDS011;53228;51.380;0.098;2024-01-07T05:39:39;16.08;;;6.95;;
66421;SDS011;53228;51.380;0.098;2024-01-07T05:42:07;12.98;;;7.13;;
66421;SDS011;53228;51.380;0.098;2024-01-07T05:44:34;15.68;;;7.43;;
66421;SDS011;53228;51.380;0.098;2024-01-07T05:47:02;15.75;;;6.70;;
66421;SDS011;53228;51.380;0.098;2024-01-07T05:49:31;15.45;;;7.00;;
66421;SDS011;53228;51.380;0.098;2024-01-07T05:51:59;18.25;;;7.15;;
66421;SDS011;53228;51.380;0.098;2024-01-07T05:54:27;16.35;;;7.35;;
66421;SDS011;53228;51.380;0.098;2024-01-07T05:56:58;19.90;;;7.47;;
66421;SDS011;53228;51.380;0.098;2024-01-07T05:59:26;16.67;;;6.80;;
66421;SDS011;53228;51.380;0.098;2024-01-07T06:01:57;17.67;;;7.93;;
66421;SDS011;53228;51.380;0.098;2024-01-07T06:04:26;16.42;;;7.88;;
66421;SDS011;53228;51.380;0.098;2024-01-07T06:06:54;15.57;;;7.05;;
66421;SDS011;53228;51.380;0.098;2024-01-07T06:09:22;17.73;;;7.35;;
66421;SDS011;53228;51.380;0.098;2024-01-07T06:11:50;17.88;;;7.85;;
66421;SDS011;53228;51.380;0.098;2024-01-07T06:14:17;16.88;;;7.25;;
66421;SDS011;53228;51.380;0.098;2024-01-07T06:16:45;13.63;;;6.63;;
66421;SDS011;53228;51.380;0.098;2024-01-07T06:19:13;13.52;;;6.80;;
66421;SDS011;53228;51.380;0.098;2024-01-07T06:21:42;18.98;;;7.32;;
66421;SDS011;53228;51.380;0.098;2024-01-07T06:24:10;22.98;;;7.97;;
66421;SDS011;53228;51.380;0.098;2024-01-07T06:26:38;24.00;;;9.25;;
66421;SDS011;53228;51.380;0.098;2024-01-07T06:29:07;27.40;;;9.45;;
66421;SDS011;53228;51.380;0.098;2024-01-07T06:31:42;25.77;;;9.40;;
66421;SDS011;53228;51.380;0.098;2024-01-07T06:34:11;22.90;;;8.90;;
66421;SDS011;53228;51.380;0.098;2024-01-07T06:39:10;25.45;;;8.90;;
66421;SDS011;53228;51.380;0.098;2024-01-07T06:41:38;24.92;;;8.95;;
66421;SDS011;53228;51.380;0.098;2024-01-07T06:44:05;26.58;;;9.90;;
66421;SDS011;53228;51.380;0.098;2024-01-07T06:46:33;21.23;;;10.82;;
66421;SDS011;53228;51.380;0.098;2024-01-07T06:49:03;26.08;;;10.52;;
66421;SDS011;53228;51.380;0.098;2024-01-07T06:51:31;29.13;;;11.10;;
66421;SDS011;53228;51.380;0.098;2024-01-07T06:53:59;27.08;;;11.98;;
66421;SDS011;53228;51.380;0.098;2024-01-07T06:56:26;22.88;;;9.90;;
66421;SDS011;53228;51.380;0.098;2024-01-07T06:58:54;24.55;;;10.43;;
66421;SDS011;53228;51.380;0.098;2024-01-07T07:01:22;26.00;;;10.55;;
66421;SDS011;53228;51.380;0.098;2024-01-07T07:03:50;27.60;;;9.98;;
66421;SDS011;53228;51.380;0.098;2024-01-07T07:06:18;31.42;;;10.95;;
66421;SDS011;53228;51.380;0.098;2024-01-07T07:08:46;22.92;;;10.25;;
66421;SDS011;53228;51.380;0.098;2024-01-07T07:11:14;24.27;;;9.52;;
66421;SDS011;53228;51.380;0.098;2024-01-07T07:13:41;28.20;;;9.90;;
66421;SDS011;53228;51.380;0.098;2024-01-07T07:16:09;24.75;;;9.77;;
66421;SDS011;53228;51.380;0.098;2024-01-07T07:18:37;25.15;;;10.10;;
66421;SDS011;53228;51.380;0.098;2024-01-07T07:21:05;31.00;;;11.25;;
66421;SDS011;53228;51.380;0.098;2024-01-07T07:23:32;27.05;;;10.82;;
66421;SDS011;53228;51.380;0.098;2024-01-07T07:26:00;26.17;;;10.60;;
66421;SDS011;53228;51.380;0.098;2024-01-07T07:28:28;28.58;;;11.07;;
66421;SDS011;53228;51.380;0.098;2024-01-07T07:30:56;33.53;;;11.18;;
66421;SDS011;53228;51.380;0.098;2024-01-07T07:33:24;25.52;;;10.27;;
66421;SDS011;53228;51.380;0.098;2024-01-07T07:35:51;25.92;;;11.02;;
66421;SDS011;53228;51.380;0.098;2024-01-07T07:38:19;25.70;;;11.02;;
66421;SDS011;53228;51.380;0.098;2024-01-07T07:40:47;27.20;;;10.90;;
66421;SDS011;53228;51.380;0.098;2024-01-07T07:43:19;24.00;;;10.73;;
66421;SDS011;53228;51.380;0.098;2024-01-07T07:45:48;30.48;;;11.55;;
66421;SDS011;53228;51.380;0.098;2024-01-07T07:48:15;27.33;;;10.10;;
66421;SDS011;53228;51.380;0.098;2024-01-07T07:50:44;29.85;;;11.23;;
66421;SDS011;53228;51.380;0.098;2024-01-07T07:53:11;31.63;;;11.20;;
66421;SDS011;53228;51.380;0.098;2024-01-07T07:55:39;28.08;;;11.68;;
66421;SDS011;53228;51.380;0.098;2024-01-07T07:58:07;27.65;;;11.05;;
66421;SDS011;53228;51.380;0.098;2024-01-07T08:00:35;27.08;;;10.73;;
66421;SDS011;53228;51.380;0.098;2024-01-07T08:03:03;27.02;;;10.70;;
66421;SDS011;53228;51.380;0.098;2024-01-07T08:05:31;30.27;;;10.32;;
66421;SDS011;53228;51.380;0.098;2024-01-07T08:07:59;33.22;;;10.05;;
66421;SDS011;53228;51.380;0.098;2024-01-07T08:10:26;25.92;;;10.23;;
66421;SDS011;53228;51.380;0.098;2024-01-07T08:12:55;21.27;;;9.77;;
66421;SDS011;53228;51.380;0.098;2024-01-07T08:15:23;24.58;;;10.25;;
66421;SDS011;53228;51.380;0.098;2024-01-07T08:17:53;26.05;;;11.07;;
66421;SDS011;53228;51.380;0.098;2024-01-07T08:20:21;25.80;;;10.98;;
66421;SDS011;53228;51.380;0.098;2024-01-07T08:22:48;29.13;;;10.27;;
66421;SDS011;53228;51.380;0.098;2024-01-07T08:25:16;31.33;;;9.93;;
66421;SDS011;53228;51.380;0.098;2024-01-07T08:27:44;31.80;;;10.80;;
66421;SDS011;53228;51.380;0.098;2024-01-07T08:30:12;31.38;;;11.05;;
66421;SDS011;53228;51.380;0.098;2024-01-07T08:32:40;26.27;;;10.13;;
66421;SDS011;53228;51.380;0.098;2024-01-07T08:35:09;21.42;;;10.00;;
66421;SDS011;53228;51.380;0.098;2024-01-07T08:37:37;22.05;;;9.65;;
66421;SDS011;53228;51.380;0.098;2024-01-07T08:40:05;23.92;;;10.00;;
66421;SDS011;53228;51.380;0.098;2024-01-07T08:42:36;26.45;;;9.50;;
66421;SDS011;53228;51.380;0.098;2024-01-07T08:45:04;22.95;;;9.80;;
66421;SDS011;53228;51.380;0.098;2024-01-07T08:47:32;32.00;;;9.63;;
66421;SDS011;53228;51.380;0.098;2024-01-07T08:50:08;22.73;;;9.00;;
66421;SDS011;53228;51.380;0.098;2024-01-07T08:52:35;24.42;;;10.13;;
66421;SDS011;53228;51.380;0.098;2024-01-07T08:55:03;19.15;;;9.40;;
66421;SDS011;53228;51.380;0.098;2024-01-07T08:57:33;20.65;;;9.43;;
66421;SDS011;53228;51.380;0.098;2024-01-07T09:00:01;18.30;;;8.82;;
66421;SDS011;53228;51.380;0.098;2024-01-07T09:02:29;22.45;;;9.05;;
66421;SDS011;53228;51.380;0.098;2024-01-07T09:04:56;19.48;;;9.38;;
66421;SDS011;53228;51.380;0.098;2024-01-07T09:07:25;21.40;;;8.82;;
66421;SDS011;53228;51.380;0.098;2024-01-07T09:09:52;19.02;;;8.80;;
66421;SDS011;53228;51.380;0.098;2024-01-07T09:12:23;21.40;;;8.23;;
66421;SDS011;53228;51.380;0.098;2024-01-07T09:14:50;18.98;;;8.75;;
66421;SDS011;53228;51.380;0.098;2024-01-07T09:17:18;24.50;;;9.50;;
66421;SDS011;53228;51.380;0.098;2024-01-07T09:19:46;27.67;;;10.77;;
66421;SDS011;53228;51.380;0.098;2024-01-07T09:22:14;35.33;;;12.57;;
66421;SDS011;53228;51.380;0.098;2024-01-07T09:24:42;27.15;;;11.23;;
66421;SDS011;53228;51.380;0.098;2024-01-07T09:27:10;20.08;;;9.05;;
66421;SDS011;53228;51.380;0.098;2024-01-07T09:29:37;21.58;;;11.02;;
66421;SDS011;53228;51.380;0.098;2024-01-07T09:32:05;21.65;;;10.35;;
66421;SDS011;53228;51.380;0.098;2024-01-07T09:34:33;24.27;;;10.05;;
66421;SDS011;53228;51.380;0.098;2024-01-07T09:37:02;19.00;;;9.80;;
66421;SDS011;53228;51.380;0.098;2024-01-07T09:39:29;25.23;;;10.40;;
66421;SDS011;53228;51.380;0.098;2024-01-07T09:41:57;25.58;;;10.35;;
66421;SDS011;53228;51.380;0.098;2024-01-07T09:44:27;21.90;;;9.90;;
66421;SDS011;53228;51.380;0.098;2024-01-07T09:46:54;19.40;;;8.63;;
66421;SDS011;53228;51.380;0.098;2024-01-07T09:49:23;27.13;;;9.93;;
66421;SDS011;53228;51.380;0.098;2024-01-07T09:51:51;20.15;;;9.05;;
66421;SDS011;53228;51.380;0.098;2024-01-07T09:54:26;22.52;;;8.52;;
66421;SDS011;53228;51.380;0.098;2024-01-07T09:56:55;29.88;;;12.00;;
66421;SDS011;53228;51.380;0.098;2024-01-07T09:59:28;36.88;;;13.18;;
66421;SDS011;53228;51.380;0.098;2024-01-07T10:01:57;31.02;;;12.50;;
66421;SDS011;53228;51.380;0.098;2024-01-07T10:04:25;27.33;;;10.80;;
66421;SDS011;53228;51.380;0.098;2024-01-07T10:06:55;25.20;;;9.95;;
66421;SDS011;53228;51.380;0.098;2024-01-07T10:09:24;28.17;;;11.10;;
66421;SDS011;53228;51.380;0.098;2024-01-07T10:11:56;35.35;;;13.68;;
66421;SDS011;53228;51.380;0.098;2024-01-07T10:14:24;26.30;;;11.15;;
66421;SDS011;53228;51.380;0.098;2024-01-07T10:16:53;22.73;;;10.93;;
66421;SDS011;53228;51.380;0.098;2024-01-07T10:19:22;28.25;;;11.15;;
66421;SDS011;53228;51.380;0.098;2024-01-07T10:22:01;25.20;;;10.95;;
66421;SDS011;53228;51.380;0.098;2024-01-07T10:24:37;28.52;;;11.05;;
66421;SDS011;53228;51.380;0.098;2024-01-07T10:27:07;27.23;;;11.63;;
66421;SDS011;53228;51.380;0.098;2024-01-07T10:29:36;25.23;;;11.25;;
66421;SDS011;53228;51.380;0.098;2024-01-07T10:32:06;27.02;;;12.02;;
66421;SDS011;53228;51.380;0.098;2024-01-07T10:34:34;30.35;;;13.65;;
66421;SDS011;53228;51.380;0.098;2024-01-07T10:37:04;31.95;;;12.30;;
66421;SDS011;53228;51.380;0.098;2024-01-07T10:39:32;27.50;;;13.00;;
66421;SDS011;53228;51.380;0.098;2024-01-07T10:42:00;32.28;;;11.82;;
66421;SDS011;53228;51.380;0.098;2024-01-07T10:44:30;29.52;;;12.48;;
66421;SDS011;53228;51.380;0.098;2024-01-07T10:46:59;28.77;;;11.95;;
66421;SDS011;53228;51.380;0.098;2024-01-07T10:49:28;23.80;;;10.38;;
66421;SDS011;53228;51.380;0.098;2024-01-07T10:52:04;18.35;;;8.50;;
66421;SDS011;53228;51.380;0.098;2024-01-07T10:54:34;17.33;;;8.88;;
66421;SDS011;53228;51.380;0.098;2024-01-07T10:57:09;18.48;;;8.20;;
66421;SDS011;53228;51.380;0.098;2024-01-07T10:59:40;22.08;;;8.68;;
66421;SDS011;53228;51.380;0.098;2024-01-07T11:02:11;20.85;;;8.07;;
66421;SDS011;53228;51.380;0.098;2024-01-07T11:04:45;15.48;;;7.28;;
66421;SDS011;53228;51.380;0.098;2024-01-07T11:07:39;13.23;;;6.10;;
66421;SDS011;53228;51.380;0.098;2024-01-07T11:10:12;14.65;;;7.40;;
66421;SDS011;53228;51.380;0.098;2024-01-07T11:12:54;10.85;;;5.97;;
66421;SDS011;53228;51.380;0.098;2024-01-07T11:18:21;12.43;;;5.63;;
66421;SDS011;53228;51.380;0.098;2024-01-07T11:20:52;10.30;;;5.75;;
66421;SDS011;53228;51.380;0.098;2024-01-07T11:23:27;9.35;;;5.85;;
66421;SDS011;53228;51.380;0.098;2024-01-07T11:26:00;12.60;;;5.95;;
66421;SDS011;53228;51.380;0.098;2024-01-07T11:31:20;10.40;;;5.30;;
66421;SDS011;53228;51.380;0.098;2024-01-07T11:33:56;8.65;;;5.18;;
66421;SDS011;53228;51.380;0.098;2024-01-07T11:36:24;13.02;;;5.93;;
66421;SDS011;53228;51.380;0.098;2024-01-07T11:38:53;20.42;;;7.35;;
66421;SDS011;53228;51.380;0.098;2024-01-07T11:41:21;15.27;;;6.85;;
66421;SDS011;53228;51.380;0.098;2024-01-07T11:43:52;13.90;;;6.50;;
66421;SDS011;53228;51.380;0.098;2024-01-07T11:46:21;14.38;;;6.20;;
66421;SDS011;53228;51.380;0.098;2024-01-07T11:48:52;13.32;;;5.75;;
66421;SDS011;53228;51.380;0.098;2024-01-07T11:51:21;11.65;;;5.40;;
66421;SDS011;53228;51.380;0.098;2024-01-07T11:53:49;13.60;;;6.32;;
66421;SDS011;53228;51.380;0.098;2024-01-07T11:56:17;13.15;;;5.55;;
66421;SDS011;53228;51.380;0.098;2024-01-07T11:58:45;19.30;;;5.57;;
66421;SDS011;53228;51.380;0.098;2024-01-07T12:01:16;14.18;;;5.78;;
66421;SDS011;53228;51.380;0.098;2024-01-07T12:03:44;10.80;;;4.65;;
66421;SDS011;53228;51.380;0.098;2024-01-07T12:06:12;7.63;;;4.38;;
66421;SDS011;53228;51.380;0.098;2024-01-07T12:08:41;6.07;;;3.50;;
66421;SDS011;53228;51.380;0.098;2024-01-07T12:13:40;7.00;;;3.38;;
66421;SDS011;53228;51.380;0.098;2024-01-07T12:16:09;5.32;;;3.17;;
66421;SDS011;53228;51.380;0.098;2024-01-07T12:18:41;7.45;;;3.05;;
66421;SDS011;53228;51.380;0.098;2024-01-07T12:21:09;6.97;;;3.10;;
66421;SDS011;53228;51.380;0.098;2024-01-07T12:23:37;8.95;;;4.07;;
66421;SDS011;53228;51.380;0.098;2024-01-07T12:26:10;8.45;;;4.07;;
66421;SDS011;53228;51.380;0.098;2024-01-07T12:28:38;8.63;;;3.28;;
66421;SDS011;53228;51.380;0.098;2024-01-07T12:31:06;9.30;;;4.30;;
66421;SDS011;53228;51.380;0.098;2024-01-07T12:33:38;7.13;;;3.92;;
66421;SDS011;53228;51.380;0.098;2024-01-07T12:36:09;6.32;;;3.42;;
66421;SDS011;53228;51.380;0.098;2024-01-07T12:38:37;12.75;;;5.00;;
66421;SDS011;53228;51.380;0.098;2024-01-07T12:41:07;9.10;;;5.05;;
66421;SDS011;53228;51.380;0.098;2024-01-07T12:43:36;20.08;;;8.20;;
66421;SDS011;53228;51.380;0.098;2024-01-07T12:46:03;23.58;;;8.88;;
66421;SDS011;53228;51.380;0.098;2024-01-07T12:48:33;13.45;;;6.38;;
66421;SDS011;53228;51.380;0.098;2024-01-07T12:51:01;21.48;;;8.50;;
66421;SDS011;53228;51.380;0.098;2024-01-07T12:53:29;10.82;;;5.68;;
66421;SDS011;53228;51.380;0.098;2024-01-07T12:55:56;9.02;;;5.25;;
66421;SDS011;53228;51.380;0.098;2024-01-07T12:58:24;7.35;;;4.03;;
66421;SDS011;53228;51.380;0.098;2024-01-07T13:00:52;6.35;;;3.55;;
66421;SDS011;53228;51.380;0.098;2024-01-07T13:03:20;7.63;;;3.97;;
66421;SDS011;53228;51.380;0.098;2024-01-07T13:05:48;6.45;;;2.47;;
66421;SDS011;53228;51.380;0.098;2024-01-07T13:08:17;8.07;;;3.15;;
66421;SDS011;53228;51.380;0.098;2024-01-07T13:10:45;6.15;;;3.53;;
66421;SDS011;53228;51.380;0.098;2024-01-07T13:13:13;4.47;;;2.17;;
66421;SDS011;53228;51.380;0.098;2024-01-07T13:15:42;3.60;;;2.35;;
66421;SDS011;53228;51.380;0.098;2024-01-07T13:18:11;4.55;;;2.55;;
66421;SDS011;53228;51.380;0.098;2024-01-07T13:20:42;5.60;;;2.50;;
66421;SDS011;53228;51.380;0.098;2024-01-07T13:23:09;7.95;;;2.45;;
66421;SDS011;53228;51.380;0.098;2024-01-07T13:25:37;4.15;;;2.17;;
66421;SDS011;53228;51.380;0.098;2024-01-07T13:28:05;3.60;;;2.30;;
66421;SDS011;53228;51.380;0.098;2024-01-07T13:30:37;5.28;;;2.55;;
66421;SDS011;53228;51.380;0.098;2024-01-07T13:33:07;4.57;;;2.25;;
66421;SDS011;53228;51.380;0.098;2024-01-07T13:35:35;5.82;;;2.88;;
66421;SDS011;53228;51.380;0.098;2024-01-07T13:38:03;4.90;;;2.63;;
66421;SDS011;53228;51.380;0.098;2024-01-07T13:40:31;4.10;;;2.05;;
66421;SDS011;53228;51.380;0.098;2024-01-07T13:42:58;4.07;;;1.95;;
66421;SDS011;53228;51.380;0.098;2024-01-07T13:45:26;3.20;;;2.20;;
66421;SDS011;53228;51.380;0.098;2024-01-07T13:47:54;2.65;;;2.00;;
66421;SDS011;53228;51.380;0.098;2024-01-07T13:50:23;5.95;;;1.80;;
66421;SDS011;53228;51.380;0.098;2024-01-07T13:52:51;3.65;;;2.53;;
66421;SDS011;53228;51.380;0.098;2024-01-07T13:55:18;9.55;;;4.10;;
66421;SDS011;53228;51.380;0.098;2024-01-07T13:57:46;5.82;;;3.60;;
66421;SDS011;53228;51.380;0.098;2024-01-07T14:00:14;10.48;;;5.45;;
66421;SDS011;53228;51.380;0.098;2024-01-07T14:02:46;11.18;;;6.28;;
66421;SDS011;53228;51.380;0.098;2024-01-07T14:05:14;14.45;;;6.20;;
66421;SDS011;53228;51.380;0.098;2024-01-07T14:07:46;12.35;;;6.20;;
66421;SDS011;53228;51.380;0.098;2024-01-07T14:10:13;10.85;;;5.88;;
66421;SDS011;53228;51.380;0.098;2024-01-07T14:12:44;20.73;;;10.63;;
66421;SDS011;53228;51.380;0.098;2024-01-07T14:15:11;31.50;;;15.80;;
66421;SDS011;53228;51.380;0.098;2024-01-07T14:17:39;7.55;;;4.35;;
66421;SDS011;53228;51.380;0.098;2024-01-07T14:20:07;11.93;;;6.13;;
66421;SDS011;53228;51.380;0.098;2024-01-07T14:22:35;10.88;;;5.47;;
66421;SDS011;53228;51.380;0.098;2024-01-07T14:25:04;11.30;;;6.10;;
66421;SDS011;53228;51.380;0.098;2024-01-07T14:27:32;9.15;;;5.63;;
66421;SDS011;53228;51.380;0.098;2024-01-07T14:30:00;10.60;;;6.00;;
66421;SDS011;53228;51.380;0.098;2024-01-07T14:32:27;12.55;;;6.05;;
66421;SDS011;53228;51.380;0.098;2024-01-07T14:34:55;13.68;;;6.32;;
66421;SDS011;53228;51.380;0.098;2024-01-07T14:37:23;13.40;;;6.55;;
66421;SDS011;53228;51.380;0.098;2024-01-07T14:39:51;15.18;;;6.85;;
66421;SDS011;53228;51.380;0.098;2024-01-07T14:42:18;11.70;;;6.03;;
66421;SDS011;53228;51.380;0.098;2024-01-07T14:44:46;18.42;;;9.02;;
66421;SDS011;53228;51.380;0.098;2024-01-07T14:49:45;23.45;;;7.97;;
66421;SDS011;53228;51.380;0.098;2024-01-07T14:52:13;14.27;;;7.82;;